createdAt,value
2023-03-21T05:01:01.386Z,7.61
2023-03-21T05:02:01.266Z,7.58
2023-03-21T05:03:01.309Z,7.58
2023-03-21T05:04:01.275Z,7.55
2023-03-21T05:05:01.243Z,7.55
2023-03-21T05:06:01.211Z,7.52
2023-03-21T05:07:01.266Z,7.50
2023-03-21T05:08:01.198Z,7.48
2023-03-21T05:09:01.208Z,7.48
2023-03-21T05:10:02.535Z,7.46
2023-03-21T05:11:01.170Z,7.48
2023-03-21T05:12:01.132Z,7.45
2023-03-21T05:13:01.184Z,7.45
2023-03-21T05:14:01.131Z,7.45
2023-03-21T05:15:55.237Z,7.46
2023-03-21T05:16:55.195Z,7.46
2023-03-21T05:17:56.986Z,7.48
2023-03-21T05:18:56.895Z,7.48
2023-03-21T05:19:55.154Z,7.49
2023-03-21T05:20:55.117Z,7.49
2023-03-21T05:21:55.209Z,7.50
2023-03-21T05:22:55.200Z,7.52
2023-03-21T05:23:55.088Z,7.50
2023-03-21T05:24:55.062Z,7.50
2023-03-21T05:25:55.073Z,7.50
2023-03-21T05:26:55.023Z,7.50
2023-03-21T05:27:55.083Z,7.52
2023-03-21T05:28:54.994Z,7.50
2023-03-21T05:30:02.082Z,7.52
2023-03-21T05:31:02.143Z,7.52
2023-03-21T05:31:54.989Z,7.52
2023-03-21T05:32:54.938Z,7.50
2023-03-21T05:33:54.959Z,7.49
2023-03-21T05:34:54.919Z,7.49
2023-03-21T05:35:54.983Z,7.48
2023-03-21T05:36:55.066Z,7.49
2023-03-21T05:37:54.896Z,7.49
2023-03-21T05:38:54.856Z,7.49
2023-03-21T05:39:54.879Z,7.49
2023-03-21T05:40:54.838Z,7.50
2023-03-21T05:41:54.845Z,7.49
2023-03-21T05:42:54.905Z,7.50
2023-03-21T05:43:54.830Z,7.53
2023-03-21T05:44:54.782Z,7.53
2023-03-21T05:45:54.873Z,7.57
2023-03-21T05:46:54.777Z,7.58
2023-03-21T05:47:54.827Z,7.61
2023-03-21T05:48:54.785Z,7.67
2023-03-21T05:49:54.753Z,7.68
2023-03-21T05:50:54.716Z,7.69
2023-03-21T05:51:54.719Z,7.72
2023-03-21T05:52:54.697Z,7.75
2023-03-21T05:53:54.701Z,7.79
2023-03-21T05:54:54.741Z,7.83
2023-03-21T05:55:54.673Z,7.86
2023-03-21T05:56:54.652Z,7.89
2023-03-21T05:57:54.663Z,7.92
2023-03-21T05:58:54.637Z,7.95
2023-03-21T05:59:54.642Z,7.97
2023-03-21T06:00:54.651Z,7.98
2023-03-21T06:01:54.603Z,8.04
2023-03-21T06:02:54.564Z,8.04
2023-03-21T06:03:54.620Z,8.08
2023-03-21T06:04:54.536Z,8.08
2023-03-21T06:05:54.551Z,8.11
2023-03-21T06:06:54.561Z,8.12
2023-03-21T06:07:54.517Z,8.18
2023-03-21T06:08:54.485Z,8.20
2023-03-21T06:09:54.485Z,8.23
2023-03-21T06:10:54.477Z,8.26
2023-03-21T06:11:54.461Z,8.28
2023-03-21T06:12:54.712Z,8.33
2023-03-21T06:13:54.444Z,8.36
2023-03-21T06:14:54.422Z,8.38
2023-03-21T06:15:54.466Z,8.40
2023-03-21T06:16:54.370Z,8.44
2023-03-21T06:17:54.389Z,8.48
2023-03-21T06:18:54.431Z,8.52
2023-03-21T06:19:54.367Z,8.55
2023-03-21T06:20:54.326Z,8.58
2023-03-21T06:21:54.352Z,8.62
2023-03-21T06:22:54.291Z,8.66
2023-03-21T06:23:54.334Z,8.71
2023-03-21T06:24:54.342Z,8.74
2023-03-21T06:25:54.276Z,8.76
2023-03-21T06:26:54.256Z,8.80
2023-03-21T06:27:54.268Z,8.83
2023-03-21T06:28:54.258Z,8.86
2023-03-21T06:29:54.250Z,8.91
2023-03-21T06:30:54.274Z,8.95
2023-03-21T06:31:54.221Z,8.96
2023-03-21T06:32:54.193Z,8.99
2023-03-21T06:33:54.175Z,9.05
2023-03-21T06:34:54.156Z,9.11
2023-03-21T06:35:54.237Z,9.17
2023-03-21T06:36:54.273Z,9.23
2023-03-21T06:37:54.165Z,9.23
2023-03-21T06:38:54.134Z,9.26
2023-03-21T06:39:55.406Z,9.28
2023-03-21T06:40:54.092Z,9.29
2023-03-21T06:41:54.059Z,9.32
2023-03-21T06:42:54.150Z,9.38
2023-03-21T06:43:54.120Z,9.40
2023-03-21T06:44:54.063Z,9.47
2023-03-21T06:45:54.034Z,9.53
2023-03-21T06:46:54.081Z,9.57
2023-03-21T06:47:54.031Z,9.61
2023-03-21T06:48:54.091Z,9.64
2023-03-21T06:49:53.954Z,9.64
2023-03-21T06:50:54.016Z,9.64
2023-03-21T06:51:53.972Z,9.66
2023-03-21T06:52:53.930Z,9.72
2023-03-21T06:53:53.908Z,9.76
2023-03-21T06:54:53.979Z,9.81
2023-03-21T06:55:53.884Z,9.79
2023-03-21T06:56:53.891Z,9.84
2023-03-21T06:57:53.845Z,9.83
2023-03-21T06:58:53.863Z,9.86
2023-03-21T06:59:53.836Z,9.87
2023-03-21T07:00:53.971Z,9.90
2023-03-21T07:01:53.801Z,9.94
2023-03-21T07:02:53.980Z,9.97
2023-03-21T07:03:53.769Z,10.07
2023-03-21T07:04:53.798Z,10.14
2023-03-21T07:05:53.782Z,10.17
2023-03-21T07:06:53.815Z,10.18
2023-03-21T07:07:53.726Z,10.23
2023-03-21T07:08:53.751Z,10.29
2023-03-21T07:09:53.701Z,10.30
2023-03-21T07:10:53.699Z,10.30
2023-03-21T07:11:53.690Z,10.34
2023-03-21T07:12:53.767Z,10.40
2023-03-21T07:13:53.652Z,10.41
2023-03-21T07:14:53.641Z,10.42
2023-03-21T07:15:53.654Z,10.45
2023-03-21T07:16:53.668Z,10.48
2023-03-21T07:17:53.596Z,10.52
2023-03-21T07:18:53.669Z,10.53
2023-03-21T07:19:53.568Z,10.55
2023-03-21T07:20:53.575Z,10.51
2023-03-21T07:21:53.528Z,10.53
2023-03-21T07:22:53.560Z,10.55
2023-03-21T07:23:53.518Z,10.51
2023-03-21T07:25:04.255Z,10.52
2023-03-21T07:25:54.576Z,10.59
2023-03-21T07:26:53.496Z,10.61
2023-03-21T07:27:53.514Z,10.61
2023-03-21T07:28:53.465Z,10.68
2023-03-21T07:29:53.471Z,10.74
2023-03-21T07:30:53.539Z,10.79
2023-03-21T07:31:53.489Z,10.91
2023-03-21T07:33:00.411Z,11.06
2023-03-21T07:34:01.430Z,11.21
2023-03-21T07:34:53.399Z,11.40
2023-03-21T07:35:53.356Z,11.49
2023-03-21T07:37:00.492Z,11.47
2023-03-21T07:37:53.310Z,11.43
2023-03-21T07:38:53.323Z,11.49
2023-03-21T07:39:53.316Z,11.73
2023-03-21T07:40:53.308Z,12.02
2023-03-21T07:41:53.269Z,12.21
2023-03-21T07:42:53.590Z,12.34
2023-03-21T07:43:53.247Z,12.41
2023-03-21T07:44:53.245Z,12.52
2023-03-21T07:45:53.251Z,12.57
2023-03-21T07:46:53.233Z,12.68
2023-03-21T07:47:53.243Z,13.01
2023-03-21T07:48:53.290Z,13.28
2023-03-21T07:49:53.181Z,13.59
2023-03-21T07:50:53.266Z,13.82
2023-03-21T07:51:53.159Z,14.04
2023-03-21T07:52:53.138Z,14.21
2023-03-21T07:53:53.104Z,14.22
2023-03-21T07:54:53.116Z,13.96
2023-03-21T07:55:53.084Z,13.59
2023-03-21T07:56:53.354Z,13.25
2023-03-21T07:57:53.053Z,13.03
2023-03-21T07:58:53.064Z,12.85
2023-03-21T07:59:53.036Z,12.74
2023-03-21T08:00:53.057Z,12.77
2023-03-21T08:01:53.078Z,12.75
2023-03-21T08:02:53.081Z,12.82
2023-03-21T08:03:53.098Z,12.92
2023-03-21T08:04:53.000Z,12.96
2023-03-21T08:05:52.953Z,12.96
2023-03-21T08:06:52.962Z,12.87
2023-03-21T08:07:52.928Z,13.19
2023-03-21T08:08:53.004Z,13.82
2023-03-21T08:09:52.911Z,14.33
2023-03-21T08:10:52.914Z,14.84
2023-03-21T08:11:52.873Z,15.27
2023-03-21T08:12:52.881Z,15.57
2023-03-21T08:13:52.851Z,15.84
2023-03-21T08:14:53.434Z,16.07
2023-03-21T08:15:52.853Z,16.20
2023-03-21T08:16:52.857Z,15.64
2023-03-21T08:17:52.791Z,14.69
2023-03-21T08:18:52.973Z,14.07
2023-03-21T08:19:52.768Z,13.87
2023-03-21T08:20:52.851Z,13.73
2023-03-21T08:21:52.740Z,13.73
2023-03-21T08:22:52.744Z,13.78
2023-03-21T08:23:52.710Z,13.91
2023-03-21T08:24:52.715Z,14.03
2023-03-21T08:25:52.701Z,14.12
2023-03-21T08:26:53.201Z,14.22
2023-03-21T08:27:52.692Z,14.28
2023-03-21T08:28:52.668Z,14.29
2023-03-21T08:29:52.640Z,14.36
2023-03-21T08:30:52.860Z,14.35
2023-03-21T08:31:52.632Z,14.27
2023-03-21T08:32:52.620Z,14.21
2023-03-21T08:33:52.587Z,14.06
2023-03-21T08:34:52.617Z,13.87
2023-03-21T08:35:52.643Z,13.77
2023-03-21T08:36:52.597Z,13.59
2023-03-21T08:37:52.527Z,13.44
2023-03-21T08:38:52.541Z,13.38
2023-03-21T08:39:52.531Z,13.33
2023-03-21T08:40:52.620Z,13.07
2023-03-21T08:41:52.482Z,12.96
2023-03-21T08:42:52.498Z,12.95
2023-03-21T08:43:52.457Z,12.86
2023-03-21T08:44:52.473Z,12.86
2023-03-21T08:45:52.463Z,12.89
2023-03-21T08:46:52.470Z,12.72
2023-03-21T08:47:52.467Z,12.70
2023-03-21T08:48:52.451Z,12.70
2023-03-21T08:49:52.387Z,12.74
2023-03-21T08:50:52.450Z,12.85
2023-03-21T08:51:52.392Z,13.00
2023-03-21T08:52:52.358Z,13.14
2023-03-21T08:53:52.349Z,13.22
2023-03-21T08:54:52.336Z,13.29
2023-03-21T08:55:52.345Z,13.23
2023-03-21T08:56:52.289Z,13.20
2023-03-21T08:57:52.286Z,13.20
2023-03-21T08:58:52.322Z,13.32
2023-03-21T08:59:52.337Z,13.41
2023-03-21T09:00:52.257Z,13.45
2023-03-21T09:01:52.287Z,13.38
2023-03-21T09:02:52.224Z,13.25
2023-03-21T09:03:52.195Z,13.33
2023-03-21T09:04:52.246Z,13.38
2023-03-21T09:05:52.288Z,13.41
2023-03-21T09:06:52.221Z,13.30
2023-03-21T09:07:52.188Z,13.28
2023-03-21T09:08:52.145Z,13.36
2023-03-21T09:10:08.140Z,13.46
2023-03-21T09:10:53.118Z,13.59
2023-03-21T09:11:52.667Z,13.66
2023-03-21T09:12:52.100Z,13.73
2023-03-21T09:13:52.268Z,13.85
2023-03-21T09:14:52.079Z,13.95
2023-03-21T09:15:52.046Z,14.06
2023-03-21T09:16:52.024Z,14.18
2023-03-21T09:17:51.996Z,14.21
2023-03-21T09:18:52.007Z,14.10
2023-03-21T09:19:52.070Z,14.21
2023-03-21T09:20:51.992Z,14.28
2023-03-21T09:21:51.949Z,14.43
2023-03-21T09:22:51.946Z,14.55
2023-03-21T09:23:51.915Z,14.68
2023-03-21T09:24:51.936Z,14.78
2023-03-21T09:25:51.940Z,14.77
2023-03-21T09:26:51.914Z,14.77
2023-03-21T09:27:51.854Z,14.81
2023-03-21T09:28:51.871Z,14.75
2023-03-21T09:29:51.853Z,14.55
2023-03-21T09:30:51.858Z,14.57
2023-03-21T09:31:52.219Z,14.46
2023-03-21T09:32:51.861Z,14.21
2023-03-21T09:33:51.782Z,14.15
2023-03-21T09:34:51.799Z,14.18
2023-03-21T09:35:58.784Z,14.12
2023-03-21T09:36:58.847Z,14.29
2023-03-21T09:37:58.748Z,14.52
2023-03-21T09:38:58.759Z,14.70
2023-03-21T09:39:58.723Z,14.86
2023-03-21T09:40:58.723Z,14.86
2023-03-21T09:41:58.690Z,14.83
2023-03-21T09:42:51.739Z,14.83
2023-03-21T09:43:51.648Z,14.83
2023-03-21T09:44:51.680Z,14.98
2023-03-21T09:45:51.619Z,15.02
2023-03-21T09:46:51.652Z,15.13
2023-03-21T09:47:51.683Z,15.17
2023-03-21T09:48:57.227Z,15.32
2023-03-21T09:49:54.658Z,15.53
2023-03-21T09:50:51.612Z,15.76
2023-03-21T09:51:51.573Z,15.90
2023-03-21T09:52:51.578Z,16.09
2023-03-21T09:53:51.523Z,16.24
2023-03-21T09:54:51.585Z,16.41
2023-03-21T09:55:51.518Z,16.53
2023-03-21T09:56:51.516Z,16.43
2023-03-21T09:57:51.510Z,16.17
2023-03-21T09:58:51.490Z,16.08
2023-03-21T09:59:51.437Z,16.14
2023-03-21T10:00:51.531Z,16.27
2023-03-21T10:01:51.449Z,16.41
2023-03-21T10:02:51.414Z,16.49
2023-03-21T10:03:51.396Z,16.63
2023-03-21T10:04:51.499Z,16.68
2023-03-21T10:05:51.375Z,16.86
2023-03-21T10:06:51.428Z,16.83
2023-03-21T10:07:51.324Z,16.97
2023-03-21T10:08:51.344Z,17.15
2023-03-21T10:09:51.310Z,17.31
2023-03-21T10:10:51.352Z,17.26
2023-03-21T10:11:51.284Z,17.31
2023-03-21T10:12:51.351Z,17.28
2023-03-21T10:13:51.295Z,17.28
2023-03-21T10:14:55.916Z,17.31
2023-03-21T10:15:51.224Z,17.40
2023-03-21T10:16:51.292Z,17.52
2023-03-21T10:17:51.203Z,17.55
2023-03-21T10:18:51.281Z,17.26
2023-03-21T10:19:51.174Z,17.14
2023-03-21T10:20:51.236Z,17.06
2023-03-21T10:22:00.588Z,17.18
2023-03-21T10:22:52.156Z,17.21
2023-03-21T10:23:51.158Z,17.30
2023-03-21T10:24:51.147Z,17.37
2023-03-21T10:25:51.135Z,17.43
2023-03-21T10:26:51.122Z,17.40
2023-03-21T10:27:51.061Z,17.37
2023-03-21T10:29:52.052Z,17.22
2023-03-21T10:30:51.115Z,17.19
2023-03-21T10:31:51.045Z,17.23
2023-03-21T10:32:51.200Z,17.38
2023-03-21T10:33:50.991Z,17.46
2023-03-21T10:34:50.969Z,17.19
2023-03-21T10:35:51.127Z,17.00
2023-03-21T10:36:50.948Z,16.89
2023-03-21T10:37:50.952Z,16.98
2023-03-21T10:38:50.939Z,16.70
2023-03-21T10:39:50.952Z,16.73
2023-03-21T10:40:50.888Z,16.82
2023-03-21T10:41:50.949Z,16.56
2023-03-21T10:42:50.886Z,16.61
2023-03-21T10:43:50.897Z,16.73
2023-03-21T10:44:50.841Z,16.66
2023-03-21T10:45:51.036Z,16.85
2023-03-21T10:46:51.064Z,16.96
2023-03-21T10:47:51.056Z,16.86
2023-03-21T10:48:50.982Z,16.82
2023-03-21T10:50:06.761Z,16.93
2023-03-21T10:50:51.891Z,16.94
2023-03-21T10:51:50.779Z,17.04
2023-03-21T10:52:50.745Z,16.96
2023-03-21T10:53:50.769Z,17.00
2023-03-21T10:54:50.751Z,17.11
2023-03-21T10:55:50.815Z,17.16
2023-03-21T10:56:50.695Z,17.25
2023-03-21T10:57:50.702Z,17.40
2023-03-21T10:58:50.653Z,17.49
2023-03-21T10:59:50.667Z,17.58
2023-03-21T11:00:50.681Z,17.72
2023-03-21T11:01:50.688Z,17.79
2023-03-21T11:02:50.787Z,17.92
2023-03-21T11:03:50.606Z,18.03
2023-03-21T11:04:50.577Z,18.12
2023-03-21T11:05:50.654Z,18.14
2023-03-21T11:06:50.566Z,18.21
2023-03-21T11:07:50.566Z,18.29
2023-03-21T11:08:50.524Z,18.37
2023-03-21T11:09:53.487Z,18.45
2023-03-21T11:10:50.591Z,18.42
2023-03-21T11:11:50.505Z,18.41
2023-03-21T11:12:50.467Z,18.57
2023-03-21T11:13:50.491Z,18.58
2023-03-21T11:14:50.529Z,18.57
2023-03-21T11:15:59.374Z,18.54
2023-03-21T11:16:52.291Z,18.45
2023-03-21T11:17:50.431Z,18.39
2023-03-21T11:18:50.411Z,18.32
2023-03-21T11:19:50.415Z,18.45
2023-03-21T11:20:50.371Z,18.52
2023-03-21T11:21:51.475Z,18.62
2023-03-21T11:22:50.445Z,18.73
2023-03-21T11:23:50.467Z,18.88
2023-03-21T11:24:50.334Z,18.99
2023-03-21T11:25:50.489Z,19.18
2023-03-21T11:26:50.319Z,19.28
2023-03-21T11:27:50.565Z,19.06
2023-03-21T11:28:50.323Z,19.10
2023-03-21T11:29:50.280Z,19.22
2023-03-21T11:30:50.333Z,19.36
2023-03-21T11:31:50.260Z,19.43
2023-03-21T11:32:50.221Z,19.51
2023-03-21T11:33:50.279Z,19.56
2023-03-21T11:34:50.209Z,19.46
2023-03-21T11:35:50.214Z,19.39
2023-03-21T11:36:50.172Z,19.28
2023-03-21T11:37:50.184Z,19.19
2023-03-21T11:38:50.149Z,19.23
2023-03-21T11:39:50.179Z,19.23
2023-03-21T11:40:57.202Z,19.33
2023-03-21T11:41:57.132Z,19.41
2023-03-21T11:42:57.085Z,19.47
2023-03-21T11:43:57.110Z,19.40
2023-03-21T11:44:58.492Z,19.44
2023-03-21T11:45:50.138Z,19.44
2023-03-21T11:46:50.098Z,19.47
2023-03-21T11:47:50.091Z,19.47
2023-03-21T11:48:50.002Z,19.61
2023-03-21T11:49:55.703Z,19.69
2023-03-21T11:50:50.995Z,19.58
2023-03-21T11:51:49.999Z,19.54
2023-03-21T11:52:50.087Z,19.47
2023-03-21T11:53:49.964Z,19.55
2023-03-21T11:54:49.934Z,19.58
2023-03-21T11:55:49.942Z,19.32
2023-03-21T11:56:49.904Z,19.26
2023-03-21T11:57:49.975Z,19.14
2023-03-21T11:58:49.951Z,19.21
2023-03-21T11:59:49.888Z,19.26
2023-03-21T12:00:49.899Z,19.43
2023-03-21T12:01:49.879Z,19.54
2023-03-21T12:02:49.903Z,19.61
2023-03-21T12:03:49.909Z,19.61
2023-03-21T12:04:50.014Z,19.59
2023-03-21T12:05:49.819Z,19.65
2023-03-21T12:06:49.788Z,19.58
2023-03-21T12:07:49.826Z,19.48
2023-03-21T12:08:49.756Z,19.56
2023-03-21T12:09:49.776Z,19.62
2023-03-21T12:10:49.790Z,19.47
2023-03-21T12:11:49.742Z,19.59
2023-03-21T12:12:49.729Z,19.68
2023-03-21T12:13:49.695Z,19.31
2023-03-21T12:14:49.687Z,19.28
2023-03-21T12:15:49.748Z,19.31
2023-03-21T12:16:49.718Z,19.41
2023-03-21T12:17:49.726Z,19.54
2023-03-21T12:18:49.654Z,19.56
2023-03-21T12:19:49.642Z,19.28
2023-03-21T12:20:49.591Z,19.18
2023-03-21T12:21:49.634Z,19.13
2023-03-21T12:22:49.626Z,19.08
2023-03-21T12:23:49.718Z,19.18
2023-03-21T12:24:49.538Z,18.92
2023-03-21T12:25:49.561Z,18.80
2023-03-21T12:26:49.543Z,18.67
2023-03-21T12:27:49.557Z,18.65
2023-03-21T12:28:49.555Z,18.66
2023-03-21T12:29:49.517Z,18.81
2023-03-21T12:30:49.450Z,18.91
2023-03-21T12:31:49.541Z,19.08
2023-03-21T12:32:49.437Z,19.23
2023-03-21T12:33:49.444Z,19.31
2023-03-21T12:34:49.476Z,19.40
2023-03-21T12:35:49.419Z,19.47
2023-03-21T12:36:49.374Z,19.47
2023-03-21T12:37:51.442Z,19.31
2023-03-21T12:38:49.379Z,19.10
2023-03-21T12:39:49.481Z,18.94
2023-03-21T12:40:49.397Z,19.00
2023-03-21T12:41:49.366Z,19.06
2023-03-21T12:42:49.290Z,19.07
2023-03-21T12:43:49.310Z,19.10
2023-03-21T12:44:49.269Z,18.95
2023-03-21T12:45:49.536Z,18.81
2023-03-21T12:46:49.333Z,18.65
2023-03-21T12:47:49.271Z,18.73
2023-03-21T12:48:49.271Z,18.87
2023-03-21T12:49:49.275Z,18.88
2023-03-21T12:50:49.274Z,18.85
2023-03-21T12:51:49.206Z,18.98
2023-03-21T12:52:49.183Z,19.10
2023-03-21T12:53:49.169Z,18.80
2023-03-21T12:54:49.160Z,18.52
2023-03-21T12:55:49.147Z,18.37
2023-03-21T12:56:49.196Z,18.42
2023-03-21T12:57:57.195Z,18.44
2023-03-21T12:58:50.130Z,18.54
2023-03-21T12:59:49.132Z,18.66
2023-03-21T13:00:49.193Z,18.65
2023-03-21T13:01:49.071Z,18.60
2023-03-21T13:02:49.083Z,18.65
2023-03-21T13:03:49.067Z,18.78
2023-03-21T13:04:49.017Z,18.88
2023-03-21T13:05:49.040Z,18.98
2023-03-21T13:06:49.005Z,19.11
2023-03-21T13:07:49.013Z,19.00
2023-03-21T13:08:49.035Z,18.82
2023-03-21T13:09:48.971Z,18.88
2023-03-21T13:10:48.942Z,19.00
2023-03-21T13:11:48.952Z,18.84
2023-03-21T13:12:48.950Z,18.87
2023-03-21T13:13:48.901Z,18.92
2023-03-21T13:14:48.948Z,19.07
2023-03-21T13:15:48.906Z,19.18
2023-03-21T13:16:48.896Z,19.32
2023-03-21T13:17:48.848Z,19.33
2023-03-21T13:18:48.859Z,19.39
2023-03-21T13:19:48.849Z,19.37
2023-03-21T13:20:48.847Z,19.48
2023-03-21T13:21:48.810Z,19.47
2023-03-21T13:22:48.810Z,19.44
2023-03-21T13:23:48.808Z,19.62
2023-03-21T13:24:48.765Z,19.58
2023-03-21T13:25:48.748Z,19.44
2023-03-21T13:26:48.767Z,19.39
2023-03-21T13:27:48.739Z,19.47
2023-03-21T13:28:48.711Z,19.59
2023-03-21T13:29:48.721Z,19.66
2023-03-21T13:30:48.805Z,19.80
2023-03-21T13:31:52.232Z,19.81
2023-03-21T13:32:48.782Z,19.94
2023-03-21T13:33:48.657Z,19.84
2023-03-21T13:34:48.626Z,19.87
2023-03-21T13:35:48.648Z,19.76
2023-03-21T13:36:48.607Z,19.80
2023-03-21T13:37:48.606Z,20.03
2023-03-21T13:38:48.997Z,20.23
2023-03-21T13:39:48.621Z,20.18
2023-03-21T13:40:48.579Z,20.23
2023-03-21T13:41:48.559Z,20.20
2023-03-21T13:42:48.526Z,20.31
2023-03-21T13:43:48.531Z,20.39
2023-03-21T13:44:50.312Z,20.52
2023-03-21T13:45:55.535Z,20.36
2023-03-21T13:46:55.550Z,20.21
2023-03-21T13:47:55.470Z,20.17
2023-03-21T13:48:59.129Z,20.17
2023-03-21T13:49:55.519Z,20.21
2023-03-21T13:50:55.443Z,20.24
2023-03-21T13:51:55.425Z,20.23
2023-03-21T13:52:48.401Z,20.35
2023-03-21T13:53:48.413Z,20.41
2023-03-21T13:54:48.355Z,20.52
2023-03-21T13:55:48.475Z,20.24
2023-03-21T13:56:48.337Z,20.08
2023-03-21T13:57:48.362Z,20.10
2023-03-21T13:58:48.322Z,20.16
2023-03-21T13:59:48.324Z,20.18
2023-03-21T14:00:48.348Z,20.08
2023-03-21T14:01:48.349Z,20.13
2023-03-21T14:02:48.276Z,20.13
2023-03-21T14:03:48.289Z,20.01
2023-03-21T14:05:04.044Z,19.96
2023-03-21T14:05:49.278Z,19.86
2023-03-21T14:06:48.232Z,19.63
2023-03-21T14:07:48.327Z,19.51
2023-03-21T14:08:48.179Z,19.47
2023-03-21T14:09:48.209Z,19.46
2023-03-21T14:10:48.164Z,19.48
2023-03-21T14:11:48.144Z,19.50
2023-03-21T14:12:48.156Z,19.43
2023-03-21T14:13:51.672Z,19.37
2023-03-21T14:14:48.103Z,19.36
2023-03-21T14:15:55.342Z,19.37
2023-03-21T14:17:48.119Z,19.23
2023-03-21T14:18:53.848Z,19.18
2023-03-21T14:19:49.132Z,19.08
2023-03-21T14:20:48.087Z,18.94
2023-03-21T14:21:48.111Z,18.88
2023-03-21T14:22:48.056Z,18.84
2023-03-21T14:23:48.024Z,18.84
2023-03-21T14:24:47.997Z,18.87
2023-03-21T14:25:48.136Z,18.85
2023-03-21T14:26:48.823Z,18.82
2023-03-21T14:27:47.941Z,18.84
2023-03-21T14:28:47.918Z,18.76
2023-03-21T14:29:47.893Z,18.73
2023-03-21T14:30:48.034Z,18.76
2023-03-21T14:31:47.938Z,18.78
2023-03-21T14:32:47.893Z,18.81
2023-03-21T14:33:47.850Z,18.88
2023-03-21T14:34:47.868Z,18.87
2023-03-21T14:35:47.880Z,18.91
2023-03-21T14:36:56.973Z,18.82
2023-03-21T14:37:48.809Z,18.78
2023-03-21T14:38:47.833Z,18.81
2023-03-21T14:39:47.783Z,18.82
2023-03-21T14:40:47.766Z,18.90
2023-03-21T14:41:47.743Z,18.82
2023-03-21T14:42:47.792Z,18.75
2023-03-21T14:43:47.713Z,18.75
2023-03-21T14:44:54.957Z,18.73
2023-03-21T14:45:48.769Z,18.66
2023-03-21T14:46:47.693Z,18.62
2023-03-21T14:47:47.712Z,18.58
2023-03-21T14:48:47.692Z,18.58
2023-03-21T14:49:47.635Z,18.63
2023-03-21T14:50:47.718Z,18.66
2023-03-21T14:51:47.666Z,18.75
2023-03-21T14:52:47.637Z,18.81
2023-03-21T14:53:47.600Z,18.84
2023-03-21T14:54:47.595Z,18.94
2023-03-21T14:55:47.575Z,18.84
2023-03-21T14:56:47.576Z,18.90
2023-03-21T14:57:47.597Z,18.98
2023-03-21T14:58:47.531Z,19.04
2023-03-21T14:59:47.515Z,18.95
2023-03-21T15:00:47.525Z,18.90
2023-03-21T15:01:47.523Z,18.81
2023-03-21T15:02:47.519Z,18.73
2023-03-21T15:03:47.511Z,18.72
2023-03-21T15:04:47.497Z,18.72
2023-03-21T15:05:47.433Z,18.69
2023-03-21T15:06:47.432Z,18.66
2023-03-21T15:07:47.392Z,18.60
2023-03-21T15:08:47.409Z,18.52
2023-03-21T15:09:47.412Z,18.39
2023-03-21T15:10:50.341Z,18.37
2023-03-21T15:11:48.381Z,18.39
2023-03-21T15:12:47.364Z,18.41
2023-03-21T15:13:47.320Z,18.42
2023-03-21T15:14:47.332Z,18.36
2023-03-21T15:15:47.469Z,18.36
2023-03-21T15:16:47.304Z,18.36
2023-03-21T15:17:47.281Z,18.42
2023-03-21T15:18:47.265Z,18.48
2023-03-21T15:19:47.260Z,18.52
2023-03-21T15:20:47.274Z,18.57
2023-03-21T15:21:47.312Z,18.60
2023-03-21T15:22:47.240Z,18.62
2023-03-21T15:23:47.193Z,18.62
2023-03-21T15:24:47.222Z,18.62
2023-03-21T15:25:47.172Z,18.63
2023-03-21T15:26:47.175Z,18.62
2023-03-21T15:27:47.240Z,18.62
2023-03-21T15:28:47.165Z,18.62
2023-03-21T15:29:47.108Z,18.65
2023-03-21T15:30:47.119Z,18.66
2023-03-21T15:31:47.143Z,18.62
2023-03-21T15:32:48.116Z,18.57
2023-03-21T15:33:47.101Z,18.62
2023-03-21T15:34:47.074Z,18.69
2023-03-21T15:35:47.098Z,18.78
2023-03-21T15:36:47.030Z,18.87
2023-03-21T15:37:47.006Z,18.90
2023-03-21T15:38:47.017Z,18.98
2023-03-21T15:39:47.038Z,18.95
2023-03-21T15:40:46.993Z,18.92
2023-03-21T15:41:46.961Z,18.98
2023-03-21T15:42:46.978Z,18.98
2023-03-21T15:43:46.960Z,19.08
2023-03-21T15:44:46.927Z,19.11
2023-03-21T15:45:46.970Z,19.14
2023-03-21T15:46:46.990Z,19.16
2023-03-21T15:47:46.895Z,19.23
2023-03-21T15:48:46.916Z,19.25
2023-03-21T15:49:46.857Z,19.21
2023-03-21T15:50:46.847Z,19.14
2023-03-21T15:51:53.936Z,19.16
2023-03-21T15:52:53.841Z,19.16
2023-03-21T15:53:54.819Z,19.10
2023-03-21T15:54:53.803Z,19.04
2023-03-21T15:55:46.765Z,18.99
2023-03-21T15:56:53.906Z,18.92
2023-03-21T15:57:46.777Z,18.94
2023-03-21T15:58:46.748Z,18.88
2023-03-21T15:59:46.713Z,18.82
2023-03-21T16:00:46.821Z,18.82
2023-03-21T16:01:46.729Z,18.84
2023-03-21T16:02:46.687Z,18.75
2023-03-21T16:03:46.724Z,18.70
2023-03-21T16:04:46.681Z,18.67
2023-03-21T16:05:46.640Z,18.65
2023-03-21T16:06:46.646Z,18.63
2023-03-21T16:07:46.610Z,18.55
2023-03-21T16:08:46.628Z,18.48
2023-03-21T16:09:46.641Z,18.41
2023-03-21T16:10:46.632Z,18.36
2023-03-21T16:11:46.548Z,18.29
2023-03-21T16:12:46.574Z,18.20
2023-03-21T16:13:46.536Z,18.15
2023-03-21T16:14:46.552Z,18.03
2023-03-21T16:15:46.543Z,17.96
2023-03-21T16:16:46.590Z,17.90
2023-03-21T16:17:46.484Z,17.82
2023-03-21T16:18:46.538Z,17.75
2023-03-21T16:19:46.456Z,17.64
2023-03-21T16:20:46.565Z,17.44
2023-03-21T16:21:46.433Z,17.23
2023-03-21T16:22:46.436Z,17.11
2023-03-21T16:23:46.403Z,16.86
2023-03-21T16:24:46.408Z,16.78
2023-03-21T16:25:46.427Z,16.71
2023-03-21T16:26:46.441Z,16.67
2023-03-21T16:27:46.354Z,16.57
2023-03-21T16:28:46.368Z,16.43
2023-03-21T16:29:46.317Z,16.33
2023-03-21T16:30:46.335Z,16.24
2023-03-21T16:31:46.329Z,16.11
2023-03-21T16:32:46.386Z,16.00
2023-03-21T16:33:46.273Z,15.93
2023-03-21T16:34:46.279Z,15.86
2023-03-21T16:35:46.341Z,15.80
2023-03-21T16:36:46.248Z,15.72
2023-03-21T16:37:46.205Z,15.68
2023-03-21T16:38:46.240Z,15.57
2023-03-21T16:39:46.232Z,15.51
2023-03-21T16:40:46.192Z,15.44
2023-03-21T16:41:46.239Z,15.39
2023-03-21T16:42:46.169Z,15.36
2023-03-21T16:43:46.140Z,15.35
2023-03-21T16:44:46.144Z,15.32
2023-03-21T16:45:46.204Z,15.28
2023-03-21T16:46:46.122Z,15.21
2023-03-21T16:47:46.178Z,15.17
2023-03-21T16:48:46.131Z,15.13
2023-03-21T16:49:46.070Z,15.07
2023-03-21T16:50:46.063Z,15.01
2023-03-21T16:51:46.031Z,14.96
2023-03-21T16:52:46.051Z,14.94
2023-03-21T16:53:46.067Z,14.88
2023-03-21T16:54:46.022Z,14.86
2023-03-21T16:55:46.001Z,14.83
2023-03-21T16:56:45.987Z,14.80
2023-03-21T16:57:45.958Z,14.77
2023-03-21T16:58:45.982Z,14.75
2023-03-21T16:59:46.195Z,14.72
2023-03-21T17:00:45.937Z,14.70
2023-03-21T17:01:46.080Z,14.68
2023-03-21T17:02:45.901Z,14.62
2023-03-21T17:03:45.920Z,14.60
2023-03-21T17:04:45.880Z,14.57
2023-03-21T17:05:45.953Z,14.55
2023-03-21T17:06:45.857Z,14.51
2023-03-21T17:07:45.819Z,14.51
2023-03-21T17:08:45.823Z,14.47
2023-03-21T17:09:45.792Z,14.45
2023-03-21T17:10:45.849Z,14.43
2023-03-21T17:11:45.833Z,14.40
2023-03-21T17:12:45.762Z,14.39
2023-03-21T17:13:45.738Z,14.36
2023-03-21T17:14:45.746Z,14.33
2023-03-21T17:15:45.700Z,14.33
2023-03-21T17:16:45.848Z,14.29
2023-03-21T17:17:45.741Z,14.28
2023-03-21T17:18:45.707Z,14.25
2023-03-21T17:19:45.666Z,14.22
2023-03-21T17:20:45.663Z,14.21
2023-03-21T17:21:45.648Z,14.20
2023-03-21T17:22:45.635Z,14.20
2023-03-21T17:23:45.676Z,14.17
2023-03-21T17:24:45.620Z,14.14
2023-03-21T17:25:45.564Z,14.10
2023-03-21T17:26:45.567Z,14.07
2023-03-21T17:27:45.556Z,14.04
2023-03-21T17:28:45.564Z,14.02
2023-03-21T17:29:45.626Z,14.00
2023-03-21T17:30:45.595Z,13.96
2023-03-21T17:31:45.483Z,13.96
2023-03-21T17:32:45.518Z,13.95
2023-03-21T17:33:45.487Z,13.92
2023-03-21T17:34:45.491Z,13.95
2023-03-21T17:35:45.675Z,13.91
2023-03-21T17:36:45.449Z,13.92
2023-03-21T17:37:52.420Z,13.89
2023-03-21T17:38:52.412Z,13.88
2023-03-21T17:39:53.397Z,13.87
2023-03-21T17:40:52.461Z,13.85
2023-03-21T17:41:52.428Z,13.85
2023-03-21T17:42:52.465Z,13.85
2023-03-21T17:43:45.316Z,13.84
2023-03-21T17:44:45.325Z,13.85
2023-03-21T17:45:45.293Z,13.82
2023-03-21T17:46:45.402Z,13.84
2023-03-21T17:47:45.318Z,13.82
2023-03-21T17:48:45.289Z,13.82
2023-03-21T17:49:45.235Z,13.78
2023-03-21T17:50:45.249Z,13.77
2023-03-21T17:51:45.215Z,13.75
2023-03-21T17:52:45.429Z,13.77
2023-03-21T17:53:45.193Z,13.75
2023-03-21T17:54:45.244Z,13.75
2023-03-21T17:55:45.175Z,13.73
2023-03-21T17:56:45.157Z,13.71
2023-03-21T17:57:45.134Z,13.73
2023-03-21T17:58:45.254Z,13.70
2023-03-21T17:59:45.105Z,13.70